sensor_id;sensor_type;location;lat;lon;timestamp;temperature;humidity
14893;DHT22;7538;53.626;9.906;2023-02-28T00:01:15;5.50;99.90
14893;DHT22;7538;53.626;9.906;2023-02-28T00:03:42;5.50;99.90
14893;DHT22;7538;53.626;9.906;2023-02-28T00:06:09;5.50;99.90
14893;DHT22;7538;53.626;9.906;2023-02-28T00:08:36;5.50;99.90
14893;DHT22;7538;53.626;9.906;2023-02-28T00:11:04;5.50;99.90
14893;DHT22;7538;53.626;9.906;2023-02-28T00:13:32;5.50;99.90
14893;DHT22;7538;53.626;9.906;2023-02-28T00:16:01;5.40;99.90
14893;DHT22;7538;53.626;9.906;2023-02-28T00:18:29;5.40;99.90
14893;DHT22;7538;53.626;9.906;2023-02-28T00:20:56;5.40;99.90
14893;DHT22;7538;53.626;9.906;2023-02-28T00:23:23;5.40;99.90
14893;DHT22;7538;53.626;9.906;2023-02-28T00:25:50;5.40;99.90
14893;DHT22;7538;53.626;9.906;2023-02-28T00:28:17;5.40;99.90
14893;DHT22;7538;53.626;9.906;2023-02-28T00:30:44;5.30;99.90
14893;DHT22;7538;53.626;9.906;2023-02-28T00:33:11;5.30;99.90
14893;DHT22;7538;53.626;9.906;2023-02-28T00:35:39;5.20;99.90
14893;DHT22;7538;53.626;9.906;2023-02-28T00:38:06;5.20;99.90
14893;DHT22;7538;53.626;9.906;2023-02-28T00:40:33;5.20;99.90
14893;DHT22;7538;53.626;9.906;2023-02-28T00:43:00;5.10;99.90
14893;DHT22;7538;53.626;9.906;2023-02-28T00:45:26;5.10;99.90
14893;DHT22;7538;53.626;9.906;2023-02-28T00:47:53;5.10;99.90
14893;DHT22;7538;53.626;9.906;2023-02-28T00:50:20;5.00;99.90
14893;DHT22;7538;53.626;9.906;2023-02-28T00:52:48;5.00;99.90
14893;DHT22;7538;53.626;9.906;2023-02-28T00:55:15;4.90;99.90
14893;DHT22;7538;53.626;9.906;2023-02-28T00:57:43;4.90;99.90
14893;DHT22;7538;53.626;9.906;2023-02-28T01:00:11;4.80;99.90
14893;DHT22;7538;53.626;9.906;2023-02-28T01:02:38;4.80;99.90
14893;DHT22;7538;53.626;9.906;2023-02-28T01:05:06;4.80;99.90
14893;DHT22;7538;53.626;9.906;2023-02-28T01:07:33;4.80;99.90
14893;DHT22;7538;53.626;9.906;2023-02-28T01:10:01;4.80;99.90
14893;DHT22;7538;53.626;9.906;2023-02-28T01:12:27;4.70;99.90
14893;DHT22;7538;53.626;9.906;2023-02-28T01:14:54;4.70;99.90
14893;DHT22;7538;53.626;9.906;2023-02-28T01:17:21;4.70;99.90
14893;DHT22;7538;53.626;9.906;2023-02-28T01:19:48;4.70;99.90
14893;DHT22;7538;53.626;9.906;2023-02-28T01:22:15;4.70;99.90
14893;DHT22;7538;53.626;9.906;2023-02-28T01:24:42;4.70;99.90
14893;DHT22;7538;53.626;9.906;2023-02-28T01:27:10;4.60;99.90
14893;DHT22;7538;53.626;9.906;2023-02-28T01:29:37;4.60;99.90
14893;DHT22;7538;53.626;9.906;2023-02-28T01:32:04;4.60;99.90
14893;DHT22;7538;53.626;9.906;2023-02-28T01:34:30;4.70;99.90
14893;DHT22;7538;53.626;9.906;2023-02-28T01:36:57;4.60;99.90
14893;DHT22;7538;53.626;9.906;2023-02-28T01:39:25;4.60;99.90
14893;DHT22;7538;53.626;9.906;2023-02-28T01:41:52;4.60;99.90
14893;DHT22;7538;53.626;9.906;2023-02-28T01:47:41;4.60;99.90
14893;DHT22;7538;53.626;9.906;2023-02-28T01:50:12;4.50;99.90
14893;DHT22;7538;53.626;9.906;2023-02-28T01:52:40;4.50;99.90
14893;DHT22;7538;53.626;9.906;2023-02-28T01:55:08;4.50;99.90
14893;DHT22;7538;53.626;9.906;2023-02-28T01:57:40;4.50;99.90
14893;DHT22;7538;53.626;9.906;2023-02-28T02:00:12;4.50;99.90
14893;DHT22;7538;53.626;9.906;2023-02-28T02:02:42;4.50;99.90
14893;DHT22;7538;53.626;9.906;2023-02-28T02:05:12;4.50;99.90
14893;DHT22;7538;53.626;9.906;2023-02-28T02:07:42;4.50;99.90
14893;DHT22;7538;53.626;9.906;2023-02-28T02:10:13;4.50;99.90
14893;DHT22;7538;53.626;9.906;2023-02-28T02:13:10;4.50;99.90
14893;DHT22;7538;53.626;9.906;2023-02-28T02:15:43;4.50;99.90
14893;DHT22;7538;53.626;9.906;2023-02-28T02:18:23;4.50;99.90
14893;DHT22;7538;53.626;9.906;2023-02-28T02:21:13;4.50;99.90
14893;DHT22;7538;53.626;9.906;2023-02-28T02:24:03;4.50;99.90
14893;DHT22;7538;53.626;9.906;2023-02-28T02:26:55;4.60;99.90
14893;DHT22;7538;53.626;9.906;2023-02-28T02:29:57;4.60;99.90
14893;DHT22;7538;53.626;9.906;2023-02-28T02:32:45;4.50;99.90
14893;DHT22;7538;53.626;9.906;2023-02-28T02:35:20;5.60;99.90
14893;DHT22;7538;53.626;9.906;2023-02-28T02:37:54;4.50;99.90
14893;DHT22;7538;53.626;9.906;2023-02-28T02:40:23;4.50;99.90
14893;DHT22;7538;53.626;9.906;2023-02-28T02:42:54;4.50;99.90
14893;DHT22;7538;53.626;9.906;2023-02-28T02:45:25;4.50;99.90
14893;DHT22;7538;53.626;9.906;2023-02-28T02:47:55;4.50;99.90
14893;DHT22;7538;53.626;9.906;2023-02-28T02:50:29;4.50;99.90
14893;DHT22;7538;53.626;9.906;2023-02-28T02:53:00;4.40;99.90
14893;DHT22;7538;53.626;9.906;2023-02-28T02:55:28;4.50;99.90
14893;DHT22;7538;53.626;9.906;2023-02-28T02:57:58;4.30;99.90
14893;DHT22;7538;53.626;9.906;2023-02-28T03:00:30;4.30;99.90
14893;DHT22;7538;53.626;9.906;2023-02-28T03:03:00;4.30;99.90
14893;DHT22;7538;53.626;9.906;2023-02-28T03:05:33;4.20;99.90
14893;DHT22;7538;53.626;9.906;2023-02-28T03:08:03;4.10;99.90
14893;DHT22;7538;53.626;9.906;2023-02-28T03:10:37;4.10;99.90
14893;DHT22;7538;53.626;9.906;2023-02-28T03:13:33;4.00;99.90
14893;DHT22;7538;53.626;9.906;2023-02-28T03:18:56;3.80;99.90
14893;DHT22;7538;53.626;9.906;2023-02-28T03:21:30;3.80;99.90
14893;DHT22;7538;53.626;9.906;2023-02-28T03:24:04;3.80;99.90
14893;DHT22;7538;53.626;9.906;2023-02-28T03:26:37;3.00;99.90
14893;DHT22;7538;53.626;9.906;2023-02-28T03:29:12;3.70;99.90
14893;DHT22;7538;53.626;9.906;2023-02-28T03:31:46;3.60;99.90
14893;DHT22;7538;53.626;9.906;2023-02-28T03:34:19;3.60;99.90
14893;DHT22;7538;53.626;9.906;2023-02-28T03:36:51;3.60;99.90
14893;DHT22;7538;53.626;9.906;2023-02-28T03:39:21;3.50;99.90
14893;DHT22;7538;53.626;9.906;2023-02-28T03:41:53;3.50;99.90
14893;DHT22;7538;53.626;9.906;2023-02-28T03:44:24;3.50;99.90
14893;DHT22;7538;53.626;9.906;2023-02-28T03:46:56;3.40;99.90
14893;DHT22;7538;53.626;9.906;2023-02-28T03:49:28;3.40;99.90
14893;DHT22;7538;53.626;9.906;2023-02-28T03:52:00;3.40;99.90
14893;DHT22;7538;53.626;9.906;2023-02-28T03:54:29;3.30;99.90
14893;DHT22;7538;53.626;9.906;2023-02-28T03:57:00;3.30;99.90
14893;DHT22;7538;53.626;9.906;2023-02-28T03:59:34;3.20;99.90
14893;DHT22;7538;53.626;9.906;2023-02-28T04:02:02;3.10;99.90
14893;DHT22;7538;53.626;9.906;2023-02-28T04:04:29;3.00;99.90
14893;DHT22;7538;53.626;9.906;2023-02-28T04:07:03;2.90;99.90
14893;DHT22;7538;53.626;9.906;2023-02-28T04:09:31;2.80;99.90
14893;DHT22;7538;53.626;9.906;2023-02-28T04:11:58;2.80;99.90
14893;DHT22;7538;53.626;9.906;2023-02-28T04:14:25;2.70;99.90
14893;DHT22;7538;53.626;9.906;2023-02-28T04:16:52;2.60;99.90
14893;DHT22;7538;53.626;9.906;2023-02-28T04:19:19;2.50;99.90
14893;DHT22;7538;53.626;9.906;2023-02-28T04:21:47;2.40;99.90
14893;DHT22;7538;53.626;9.906;2023-02-28T04:24:17;2.40;99.90
14893;DHT22;7538;53.626;9.906;2023-02-28T04:26:47;2.30;99.90
14893;DHT22;7538;53.626;9.906;2023-02-28T04:29:19;2.20;99.90
14893;DHT22;7538;53.626;9.906;2023-02-28T04:31:46;2.20;99.90
14893;DHT22;7538;53.626;9.906;2023-02-28T04:34:12;2.10;99.90
14893;DHT22;7538;53.626;9.906;2023-02-28T04:36:40;2.00;99.90
14893;DHT22;7538;53.626;9.906;2023-02-28T04:39:07;2.00;99.90
14893;DHT22;7538;53.626;9.906;2023-02-28T04:41:36;1.90;99.90
14893;DHT22;7538;53.626;9.906;2023-02-28T04:44:04;4.50;99.90
14893;DHT22;7538;53.626;9.906;2023-02-28T04:46:31;1.90;99.90
14893;DHT22;7538;53.626;9.906;2023-02-28T04:48:58;1.80;99.90
14893;DHT22;7538;53.626;9.906;2023-02-28T04:51:25;1.70;99.90
14893;DHT22;7538;53.626;9.906;2023-02-28T04:53:52;1.70;99.90
14893;DHT22;7538;53.626;9.906;2023-02-28T04:56:19;1.70;99.90
14893;DHT22;7538;53.626;9.906;2023-02-28T04:58:47;1.60;99.90
14893;DHT22;7538;53.626;9.906;2023-02-28T05:01:18;1.60;99.90
14893;DHT22;7538;53.626;9.906;2023-02-28T05:03:45;1.50;99.90
14893;DHT22;7538;53.626;9.906;2023-02-28T05:06:13;1.50;99.90
14893;DHT22;7538;53.626;9.906;2023-02-28T05:08:40;1.40;99.90
14893;DHT22;7538;53.626;9.906;2023-02-28T05:11:13;1.40;99.90
14893;DHT22;7538;53.626;9.906;2023-02-28T05:13:41;1.40;99.90
14893;DHT22;7538;53.626;9.906;2023-02-28T05:16:09;1.30;99.90
14893;DHT22;7538;53.626;9.906;2023-02-28T05:18:36;1.30;99.90
14893;DHT22;7538;53.626;9.906;2023-02-28T05:21:03;1.20;99.90
14893;DHT22;7538;53.626;9.906;2023-02-28T05:23:29;1.20;99.90
14893;DHT22;7538;53.626;9.906;2023-02-28T05:25:56;1.20;99.90
14893;DHT22;7538;53.626;9.906;2023-02-28T05:28:23;1.10;99.90
14893;DHT22;7538;53.626;9.906;2023-02-28T05:30:50;1.10;99.90
14893;DHT22;7538;53.626;9.906;2023-02-28T05:33:18;1.00;99.90
14893;DHT22;7538;53.626;9.906;2023-02-28T05:35:45;1.00;99.90
14893;DHT22;7538;53.626;9.906;2023-02-28T05:38:11;1.00;99.90
14893;DHT22;7538;53.626;9.906;2023-02-28T05:40:39;1.00;99.90
14893;DHT22;7538;53.626;9.906;2023-02-28T05:43:07;1.00;99.90
14893;DHT22;7538;53.626;9.906;2023-02-28T05:45:35;1.00;99.90
14893;DHT22;7538;53.626;9.906;2023-02-28T05:48:02;1.00;99.90
14893;DHT22;7538;53.626;9.906;2023-02-28T05:50:30;0.90;99.90
14893;DHT22;7538;53.626;9.906;2023-02-28T05:52:56;0.90;99.90
14893;DHT22;7538;53.626;9.906;2023-02-28T05:55:23;0.90;99.90
14893;DHT22;7538;53.626;9.906;2023-02-28T05:57:50;0.80;99.90
14893;DHT22;7538;53.626;9.906;2023-02-28T06:00:17;0.90;99.90
14893;DHT22;7538;53.626;9.906;2023-02-28T06:02:44;0.80;99.90
14893;DHT22;7538;53.626;9.906;2023-02-28T06:05:14;0.80;99.90
14893;DHT22;7538;53.626;9.906;2023-02-28T06:07:43;0.70;99.90
14893;DHT22;7538;53.626;9.906;2023-02-28T06:10:11;0.80;99.90
14893;DHT22;7538;53.626;9.906;2023-02-28T06:12:38;0.70;99.90
14893;DHT22;7538;53.626;9.906;2023-02-28T06:15:09;0.80;99.90
14893;DHT22;7538;53.626;9.906;2023-02-28T06:17:37;0.70;99.90
14893;DHT22;7538;53.626;9.906;2023-02-28T06:20:06;0.70;99.90
14893;DHT22;7538;53.626;9.906;2023-02-28T06:22:34;0.70;99.90
14893;DHT22;7538;53.626;9.906;2023-02-28T06:25:02;0.70;99.90
14893;DHT22;7538;53.626;9.906;2023-02-28T06:27:30;0.70;99.90
14893;DHT22;7538;53.626;9.906;2023-02-28T06:29:57;0.80;99.90
14893;DHT22;7538;53.626;9.906;2023-02-28T06:32:24;0.90;99.90
14893;DHT22;7538;53.626;9.906;2023-02-28T06:34:51;0.80;99.90
14893;DHT22;7538;53.626;9.906;2023-02-28T06:37:18;0.80;99.90
14893;DHT22;7538;53.626;9.906;2023-02-28T06:39:45;0.80;99.90
14893;DHT22;7538;53.626;9.906;2023-02-28T06:42:13;2.60;99.90
14893;DHT22;7538;53.626;9.906;2023-02-28T06:44:40;0.90;99.90
14893;DHT22;7538;53.626;9.906;2023-02-28T06:47:08;0.90;99.90
14893;DHT22;7538;53.626;9.906;2023-02-28T06:49:35;1.00;99.90
14893;DHT22;7538;53.626;9.906;2023-02-28T06:52:04;1.00;99.90
14893;DHT22;7538;53.626;9.906;2023-02-28T06:54:31;1.10;99.90
14893;DHT22;7538;53.626;9.906;2023-02-28T06:56:58;1.20;99.90
14893;DHT22;7538;53.626;9.906;2023-02-28T06:59:26;1.20;99.90
14893;DHT22;7538;53.626;9.906;2023-02-28T07:01:53;1.30;99.90
14893;DHT22;7538;53.626;9.906;2023-02-28T07:04:20;1.40;99.90
14893;DHT22;7538;53.626;9.906;2023-02-28T07:06:47;1.40;99.90
14893;DHT22;7538;53.626;9.906;2023-02-28T07:09:14;1.50;99.90
14893;DHT22;7538;53.626;9.906;2023-02-28T07:11:41;1.60;99.90
14893;DHT22;7538;53.626;9.906;2023-02-28T07:14:08;1.70;99.90
14893;DHT22;7538;53.626;9.906;2023-02-28T07:16:37;1.80;99.90
14893;DHT22;7538;53.626;9.906;2023-02-28T07:19:03;2.00;99.90
14893;DHT22;7538;53.626;9.906;2023-02-28T07:21:30;0.30;99.90
14893;DHT22;7538;53.626;9.906;2023-02-28T07:23:57;2.50;99.90
14893;DHT22;7538;53.626;9.906;2023-02-28T07:26:24;2.80;99.90
14893;DHT22;7538;53.626;9.906;2023-02-28T07:28:51;3.00;99.90
14893;DHT22;7538;53.626;9.906;2023-02-28T07:31:18;3.20;99.90
14893;DHT22;7538;53.626;9.906;2023-02-28T07:33:46;3.40;99.90
14893;DHT22;7538;53.626;9.906;2023-02-28T07:36:14;3.70;99.90
14893;DHT22;7538;53.626;9.906;2023-02-28T07:38:43;0.70;99.90
14893;DHT22;7538;53.626;9.906;2023-02-28T07:41:11;4.20;99.90
14893;DHT22;7538;53.626;9.906;2023-02-28T07:43:38;4.50;99.90
14893;DHT22;7538;53.626;9.906;2023-02-28T07:46:06;4.80;99.90
14893;DHT22;7538;53.626;9.906;2023-02-28T07:48:34;4.90;99.90
14893;DHT22;7538;53.626;9.906;2023-02-28T07:51:03;5.10;99.90
14893;DHT22;7538;53.626;9.906;2023-02-28T07:53:30;5.40;99.90
14893;DHT22;7538;53.626;9.906;2023-02-28T07:55:57;6.00;99.90
14893;DHT22;7538;53.626;9.906;2023-02-28T07:58:25;6.90;99.90
14893;DHT22;7538;53.626;9.906;2023-02-28T08:00:52;8.10;99.50
14893;DHT22;7538;53.626;9.906;2023-02-28T08:03:20;9.50;96.30
14893;DHT22;7538;53.626;9.906;2023-02-28T08:05:48;11.00;92.50
14893;DHT22;7538;53.626;9.906;2023-02-28T08:08:16;12.50;90.50
14893;DHT22;7538;53.626;9.906;2023-02-28T08:10:43;13.90;81.90
14893;DHT22;7538;53.626;9.906;2023-02-28T08:13:10;15.20;74.90
14893;DHT22;7538;53.626;9.906;2023-02-28T08:15:37;16.50;69.40
14893;DHT22;7538;53.626;9.906;2023-02-28T08:18:04;17.70;62.70
14893;DHT22;7538;53.626;9.906;2023-02-28T08:20:30;18.70;58.10
14893;DHT22;7538;53.626;9.906;2023-02-28T08:22:57;19.70;55.30
14893;DHT22;7538;53.626;9.906;2023-02-28T08:25:25;20.60;52.40
14893;DHT22;7538;53.626;9.906;2023-02-28T08:27:52;21.30;49.30
14893;DHT22;7538;53.626;9.906;2023-02-28T08:30:19;21.90;46.70
14893;DHT22;7538;53.626;9.906;2023-02-28T08:32:46;22.50;44.40
14893;DHT22;7538;53.626;9.906;2023-02-28T08:35:13;23.10;42.30
14893;DHT22;7538;53.626;9.906;2023-02-28T08:37:39;23.70;40.80
14893;DHT22;7538;53.626;9.906;2023-02-28T08:40:08;24.20;38.80
14893;DHT22;7538;53.626;9.906;2023-02-28T08:42:36;24.30;38.00
14893;DHT22;7538;53.626;9.906;2023-02-28T08:45:05;24.20;37.20
14893;DHT22;7538;53.626;9.906;2023-02-28T08:47:32;24.40;36.20
14893;DHT22;7538;53.626;9.906;2023-02-28T08:49:58;24.30;35.20
14893;DHT22;7538;53.626;9.906;2023-02-28T08:52:25;24.50;34.40
14893;DHT22;7538;53.626;9.906;2023-02-28T08:54:52;24.30;33.70
14893;DHT22;7538;53.626;9.906;2023-02-28T08:57:19;24.20;34.00
14893;DHT22;7538;53.626;9.906;2023-02-28T08:59:47;24.30;33.10
14893;DHT22;7538;53.626;9.906;2023-02-28T09:02:14;24.60;32.80
14893;DHT22;7538;53.626;9.906;2023-02-28T09:04:41;24.30;33.40
14893;DHT22;7538;53.626;9.906;2023-02-28T09:07:11;24.20;32.40
14893;DHT22;7538;53.626;9.906;2023-02-28T09:09:38;24.30;32.90
14893;DHT22;7538;53.626;9.906;2023-02-28T09:12:19;24.00;32.40
14893;DHT22;7538;53.626;9.906;2023-02-28T09:14:47;23.70;32.80
14893;DHT22;7538;53.626;9.906;2023-02-28T09:17:14;23.70;32.60
14893;DHT22;7538;53.626;9.906;2023-02-28T09:19:41;24.00;32.00
14893;DHT22;7538;53.626;9.906;2023-02-28T09:22:08;24.30;30.50
14893;DHT22;7538;53.626;9.906;2023-02-28T09:24:36;24.50;30.00
14893;DHT22;7538;53.626;9.906;2023-02-28T09:27:03;24.70;29.60
14893;DHT22;7538;53.626;9.906;2023-02-28T09:29:30;24.30;29.90
14893;DHT22;7538;53.626;9.906;2023-02-28T09:31:59;23.90;30.00
14893;DHT22;7538;53.626;9.906;2023-02-28T09:34:26;23.90;30.20
14893;DHT22;7538;53.626;9.906;2023-02-28T09:36:56;24.20;29.20
14893;DHT22;7538;53.626;9.906;2023-02-28T09:39:23;24.20;29.90
14893;DHT22;7538;53.626;9.906;2023-02-28T09:41:53;24.00;29.90
14893;DHT22;7538;53.626;9.906;2023-02-28T09:44:26;24.00;29.90
14893;DHT22;7538;53.626;9.906;2023-02-28T09:46:59;23.20;29.70
14893;DHT22;7538;53.626;9.906;2023-02-28T09:49:33;22.80;30.70
14893;DHT22;7538;53.626;9.906;2023-02-28T09:52:03;23.00;30.40
14893;DHT22;7538;53.626;9.906;2023-02-28T09:54:32;23.40;29.60
14893;DHT22;7538;53.626;9.906;2023-02-28T09:57:04;23.20;29.40
14893;DHT22;7538;53.626;9.906;2023-02-28T09:59:41;22.50;30.20
14893;DHT22;7538;53.626;9.906;2023-02-28T10:02:21;22.10;31.20
14893;DHT22;7538;53.626;9.906;2023-02-28T10:04:56;22.20;31.70
14893;DHT22;7538;53.626;9.906;2023-02-28T10:07:37;22.30;32.20
14893;DHT22;7538;53.626;9.906;2023-02-28T10:10:10;22.10;32.40
14893;DHT22;7538;53.626;9.906;2023-02-28T10:12:43;21.30;31.70
14893;DHT22;7538;53.626;9.906;2023-02-28T10:15:14;20.90;33.00
14893;DHT22;7538;53.626;9.906;2023-02-28T10:17:44;19.90;32.70
14893;DHT22;7538;53.626;9.906;2023-02-28T10:20:14;19.10;34.70
14893;DHT22;7538;53.626;9.906;2023-02-28T10:22:52;18.90;34.80
14893;DHT22;7538;53.626;9.906;2023-02-28T10:25:22;19.20;34.10
14893;DHT22;7538;53.626;9.906;2023-02-28T10:27:50;19.40;34.90
14893;DHT22;7538;53.626;9.906;2023-02-28T10:30:19;17.50;34.00
14893;DHT22;7538;53.626;9.906;2023-02-28T10:32:51;19.40;34.40
14893;DHT22;7538;53.626;9.906;2023-02-28T10:35:20;19.20;34.60
14893;DHT22;7538;53.626;9.906;2023-02-28T10:37:49;18.20;35.80
14893;DHT22;7538;53.626;9.906;2023-02-28T10:40:29;17.30;36.60
14893;DHT22;7538;53.626;9.906;2023-02-28T10:42:58;16.50;38.70
14893;DHT22;7538;53.626;9.906;2023-02-28T10:45:26;15.60;39.60
14893;DHT22;7538;53.626;9.906;2023-02-28T10:47:56;14.40;40.50
14893;DHT22;7538;53.626;9.906;2023-02-28T10:50:31;13.40;41.80
14893;DHT22;7538;53.626;9.906;2023-02-28T10:53:14;12.40;44.00
14893;DHT22;7538;53.626;9.906;2023-02-28T10:55:42;12.10;45.70
14893;DHT22;7538;53.626;9.906;2023-02-28T10:58:21;12.10;45.90
14893;DHT22;7538;53.626;9.906;2023-02-28T11:00:48;12.00;45.30
14893;DHT22;7538;53.626;9.906;2023-02-28T11:03:28;11.80;46.40
14893;DHT22;7538;53.626;9.906;2023-02-28T11:05:56;11.50;46.30
14893;DHT22;7538;53.626;9.906;2023-02-28T11:08:23;11.40;47.60
14893;DHT22;7538;53.626;9.906;2023-02-28T11:10:54;11.30;48.50
14893;DHT22;7538;53.626;9.906;2023-02-28T11:13:29;11.30;48.40
14893;DHT22;7538;53.626;9.906;2023-02-28T11:15:59;11.20;47.40
14893;DHT22;7538;53.626;9.906;2023-02-28T11:18:30;11.10;47.50
14893;DHT22;7538;53.626;9.906;2023-02-28T11:20:59;11.10;48.60
14893;DHT22;7538;53.626;9.906;2023-02-28T11:23:29;11.00;48.70
14893;DHT22;7538;53.626;9.906;2023-02-28T11:25:59;11.00;48.80
14893;DHT22;7538;53.626;9.906;2023-02-28T11:28:28;10.60;50.50
14893;DHT22;7538;53.626;9.906;2023-02-28T11:31:15;10.50;49.50
14893;DHT22;7538;53.626;9.906;2023-02-28T11:33:47;10.30;49.90
14893;DHT22;7538;53.626;9.906;2023-02-28T11:36:19;10.10;49.50
14893;DHT22;7538;53.626;9.906;2023-02-28T11:38:46;10.10;49.80
14893;DHT22;7538;53.626;9.906;2023-02-28T11:41:36;10.00;50.90
14893;DHT22;7538;53.626;9.906;2023-02-28T11:44:23;9.90;52.10
14893;DHT22;7538;53.626;9.906;2023-02-28T11:46:54;9.60;52.40
14893;DHT22;7538;53.626;9.906;2023-02-28T11:49:32;9.50;52.80
14893;DHT22;7538;53.626;9.906;2023-02-28T11:52:02;9.40;52.40
14893;DHT22;7538;53.626;9.906;2023-02-28T11:54:48;9.40;52.30
14893;DHT22;7538;53.626;9.906;2023-02-28T11:57:36;9.30;52.20
14893;DHT22;7538;53.626;9.906;2023-02-28T12:00:17;9.50;52.90
14893;DHT22;7538;53.626;9.906;2023-02-28T12:02:59;9.60;51.60
14893;DHT22;7538;53.626;9.906;2023-02-28T12:05:31;9.70;51.80
14893;DHT22;7538;53.626;9.906;2023-02-28T12:08:07;9.70;51.70
14893;DHT22;7538;53.626;9.906;2023-02-28T12:10:48;9.80;51.30
14893;DHT22;7538;53.626;9.906;2023-02-28T12:13:20;9.80;51.30
14893;DHT22;7538;53.626;9.906;2023-02-28T12:19:15;9.60;52.20
14893;DHT22;7538;53.626;9.906;2023-02-28T12:22:03;9.50;51.90
14893;DHT22;7538;53.626;9.906;2023-02-28T12:24:45;9.30;53.20
14893;DHT22;7538;53.626;9.906;2023-02-28T12:27:21;9.30;52.20
14893;DHT22;7538;53.626;9.906;2023-02-28T12:29:52;9.40;52.40
14893;DHT22;7538;53.626;9.906;2023-02-28T12:32:25;9.50;52.70
14893;DHT22;7538;53.626;9.906;2023-02-28T12:34:56;9.40;52.40
14893;DHT22;7538;53.626;9.906;2023-02-28T12:37:31;9.40;52.50
14893;DHT22;7538;53.626;9.906;2023-02-28T12:40:02;9.50;51.80
14893;DHT22;7538;53.626;9.906;2023-02-28T12:42:33;9.30;51.10
14893;DHT22;7538;53.626;9.906;2023-02-28T12:45:06;9.50;52.00
14893;DHT22;7538;53.626;9.906;2023-02-28T12:47:34;9.60;52.10
14893;DHT22;7538;53.626;9.906;2023-02-28T12:50:04;9.70;52.20
14893;DHT22;7538;53.626;9.906;2023-02-28T12:52:39;9.70;52.00
14893;DHT22;7538;53.626;9.906;2023-02-28T12:55:11;9.80;51.90
14893;DHT22;7538;53.626;9.906;2023-02-28T12:57:45;9.90;51.70
14893;DHT22;7538;53.626;9.906;2023-02-28T13:00:17;9.90;51.70
14893;DHT22;7538;53.626;9.906;2023-02-28T13:02:59;9.90;51.30
14893;DHT22;7538;53.626;9.906;2023-02-28T13:05:53;9.70;51.00
14893;DHT22;7538;53.626;9.906;2023-02-28T13:11:28;9.70;51.40
14893;DHT22;7538;53.626;9.906;2023-02-28T13:14:01;9.60;51.60
14893;DHT22;7538;53.626;9.906;2023-02-28T13:16:31;9.60;51.40
14893;DHT22;7538;53.626;9.906;2023-02-28T13:19:17;9.60;51.30
14893;DHT22;7538;53.626;9.906;2023-02-28T13:21:45;9.60;51.90
14893;DHT22;7538;53.626;9.906;2023-02-28T13:24:43;9.70;51.90
14893;DHT22;7538;53.626;9.906;2023-02-28T13:27:33;9.70;51.10
14893;DHT22;7538;53.626;9.906;2023-02-28T13:30:01;9.70;51.20
14893;DHT22;7538;53.626;9.906;2023-02-28T13:32:35;9.80;50.90
14893;DHT22;7538;53.626;9.906;2023-02-28T13:38:37;9.70;51.80
14893;DHT22;7538;53.626;9.906;2023-02-28T13:44:12;9.70;52.00
14893;DHT22;7538;53.626;9.906;2023-02-28T13:49:39;9.50;52.80
14893;DHT22;7538;53.626;9.906;2023-02-28T13:52:12;9.50;52.70
14893;DHT22;7538;53.626;9.906;2023-02-28T13:54:58;9.40;52.40
14893;DHT22;7538;53.626;9.906;2023-02-28T13:57:42;9.40;52.90
14893;DHT22;7538;53.626;9.906;2023-02-28T14:00:22;9.30;54.30
14893;DHT22;7538;53.626;9.906;2023-02-28T14:03:18;9.20;54.30
14893;DHT22;7538;53.626;9.906;2023-02-28T14:05:45;9.20;54.50
14893;DHT22;7538;53.626;9.906;2023-02-28T14:08:16;11.80;55.00
14893;DHT22;7538;53.626;9.906;2023-02-28T14:10:46;8.90;53.90
14893;DHT22;7538;53.626;9.906;2023-02-28T14:13:44;9.00;53.90
14893;DHT22;7538;53.626;9.906;2023-02-28T14:16:15;9.00;54.60
14893;DHT22;7538;53.626;9.906;2023-02-28T14:18:49;8.90;53.60
14893;DHT22;7538;53.626;9.906;2023-02-28T14:21:21;8.90;53.50
14893;DHT22;7538;53.626;9.906;2023-02-28T14:24:10;9.00;53.70
14893;DHT22;7538;53.626;9.906;2023-02-28T14:27:03;9.10;53.90
14893;DHT22;7538;53.626;9.906;2023-02-28T14:30:03;9.10;53.80
14893;DHT22;7538;53.626;9.906;2023-02-28T14:32:44;9.00;53.80
14893;DHT22;7538;53.626;9.906;2023-02-28T14:35:35;9.00;53.50
14893;DHT22;7538;53.626;9.906;2023-02-28T14:38:05;9.10;52.70
14893;DHT22;7538;53.626;9.906;2023-02-28T14:40:33;9.00;52.80
14893;DHT22;7538;53.626;9.906;2023-02-28T14:43:02;9.00;53.20
14893;DHT22;7538;53.626;9.906;2023-02-28T14:45:32;9.00;53.40
14893;DHT22;7538;53.626;9.906;2023-02-28T14:48:01;8.90;52.30
14893;DHT22;7538;53.626;9.906;2023-02-28T14:50:31;8.80;52.60
14893;DHT22;7538;53.626;9.906;2023-02-28T14:52:58;8.90;53.30
14893;DHT22;7538;53.626;9.906;2023-02-28T14:55:27;9.00;54.10
14893;DHT22;7538;53.626;9.906;2023-02-28T14:57:59;9.00;55.30
14893;DHT22;7538;53.626;9.906;2023-02-28T15:00:29;8.90;55.10
14893;DHT22;7538;53.626;9.906;2023-02-28T15:03:11;8.90;55.90
14893;DHT22;7538;53.626;9.906;2023-02-28T15:05:51;8.90;56.30
14893;DHT22;7538;53.626;9.906;2023-02-28T15:08:19;9.00;56.20
14893;DHT22;7538;53.626;9.906;2023-02-28T15:10:52;8.90;55.90
14893;DHT22;7538;53.626;9.906;2023-02-28T15:13:19;8.70;56.10
14893;DHT22;7538;53.626;9.906;2023-02-28T15:15:51;8.70;56.40
14893;DHT22;7538;53.626;9.906;2023-02-28T15:18:30;8.70;57.10
14893;DHT22;7538;53.626;9.906;2023-02-28T15:20:57;8.80;57.60
14893;DHT22;7538;53.626;9.906;2023-02-28T15:23:25;8.80;58.20
14893;DHT22;7538;53.626;9.906;2023-02-28T15:25:53;8.90;58.80
14893;DHT22;7538;53.626;9.906;2023-02-28T15:28:22;9.00;58.90
14893;DHT22;7538;53.626;9.906;2023-02-28T15:30:55;8.90;57.80
14893;DHT22;7538;53.626;9.906;2023-02-28T15:33:24;8.90;55.00
14893;DHT22;7538;53.626;9.906;2023-02-28T15:36:03;8.90;53.40
14893;DHT22;7538;53.626;9.906;2023-02-28T15:38:34;8.80;52.80
14893;DHT22;7538;53.626;9.906;2023-02-28T15:41:01;8.80;53.40
14893;DHT22;7538;53.626;9.906;2023-02-28T15:43:29;8.80;55.30
14893;DHT22;7538;53.626;9.906;2023-02-28T15:45:58;8.80;56.60
14893;DHT22;7538;53.626;9.906;2023-02-28T15:48:29;8.80;53.90
14893;DHT22;7538;53.626;9.906;2023-02-28T15:51:01;8.80;54.90
14893;DHT22;7538;53.626;9.906;2023-02-28T15:53:31;8.90;56.50
14893;DHT22;7538;53.626;9.906;2023-02-28T15:56:01;8.80;56.80
14893;DHT22;7538;53.626;9.906;2023-02-28T15:58:29;8.80;56.50
14893;DHT22;7538;53.626;9.906;2023-02-28T16:01:06;8.70;57.20
14893;DHT22;7538;53.626;9.906;2023-02-28T16:03:44;8.70;57.80
14893;DHT22;7538;53.626;9.906;2023-02-28T16:06:36;8.60;57.20
14893;DHT22;7538;53.626;9.906;2023-02-28T16:09:05;8.60;57.00
14893;DHT22;7538;53.626;9.906;2023-02-28T16:11:37;8.60;57.00
14893;DHT22;7538;53.626;9.906;2023-02-28T16:14:05;8.50;55.80
14893;DHT22;7538;53.626;9.906;2023-02-28T16:16:33;8.50;56.80
14893;DHT22;7538;53.626;9.906;2023-02-28T16:19:01;8.40;57.40
14893;DHT22;7538;53.626;9.906;2023-02-28T16:21:28;8.40;57.00
14893;DHT22;7538;53.626;9.906;2023-02-28T16:23:55;8.30;57.00
14893;DHT22;7538;53.626;9.906;2023-02-28T16:26:24;8.20;56.80
14893;DHT22;7538;53.626;9.906;2023-02-28T16:28:53;8.20;57.10
14893;DHT22;7538;53.626;9.906;2023-02-28T16:31:20;8.10;57.80
14893;DHT22;7538;53.626;9.906;2023-02-28T16:33:47;8.00;58.20
14893;DHT22;7538;53.626;9.906;2023-02-28T16:36:17;8.00;57.70
14893;DHT22;7538;53.626;9.906;2023-02-28T16:38:44;7.90;57.80
14893;DHT22;7538;53.626;9.906;2023-02-28T16:41:17;7.90;58.40
14893;DHT22;7538;53.626;9.906;2023-02-28T16:43:47;7.90;58.90